Time;durP1;ratioP1;P1;durP2;ratioP2;P2;SDS_P1;SDS_P2;PMS_P1;PMS_P2;Temp;Humidity;BMP_temperature;BMP_pressure;BME280_temperature;BME280_humidity;BME280_pressure;Samples;Min_cycle;Max_cycle;Signal;HPM_P1;HPM_P2
2021/09/23 04:02:06;;;;;;;52.30;33.13;;;11.90;99.90;;;;;;5191890;23;20668;-72
2021/09/23 04:04:33;;;;;;;44.08;31.60;;;11.90;99.90;;;;;;4920061;29;20318;-72
2021/09/23 04:06:59;;;;;;;45.22;30.35;;;11.90;99.90;;;;;;4930022;29;20214;-72
2021/09/23 04:09:26;;;;;;;49.25;31.52;;;11.90;99.90;;;;;;4931944;29;20238;-72
2021/09/23 04:11:53;;;;;;;45.65;31.60;;;11.90;99.90;;;;;;4926089;29;20227;-72
2021/09/23 04:14:19;;;;;;;46.45;31.40;;;11.90;99.90;;;;;;4918543;29;20222;-72
2021/09/23 04:16:46;;;;;;;42.35;30.50;;;11.90;99.90;;;;;;4918500;29;21002;-73
2021/09/23 04:19:14;;;;;;;54.53;32.30;;;11.90;99.90;;;;;;4917788;29;20214;-73
2021/09/23 04:21:41;;;;;;;45.83;30.42;;;11.90;99.90;;;;;;4918642;29;20231;-73
2021/09/23 04:24:08;;;;;;;46.58;29.20;;;11.90;99.90;;;;;;4918348;29;20219;-73
2021/09/23 04:26:34;;;;;;;47.28;31.67;;;12.00;99.90;;;;;;4918355;29;20210;-73
2021/09/23 04:29:02;;;;;;;45.03;30.90;;;12.00;99.90;;;;;;4918140;29;20262;-72
2021/09/23 04:31:28;;;;;;;40.72;29.25;;;12.00;99.90;;;;;;4918162;29;20232;-73
2021/09/23 04:33:55;;;;;;;42.58;30.60;;;12.10;99.90;;;;;;4917563;29;20222;-75
2021/09/23 04:36:23;;;;;;;46.67;30.40;;;12.10;99.90;;;;;;4918536;29;20222;-76
2021/09/23 04:38:50;;;;;;;46.10;29.95;;;12.10;99.90;;;;;;4919392;29;20546;-76
2021/09/23 04:41:17;;;;;;;45.97;31.40;;;12.20;99.90;;;;;;4919378;29;20234;-75
2021/09/23 04:43:48;;;;;;;46.38;29.02;;;12.20;99.90;;;;;;4918672;29;20250;-75
2021/09/23 04:46:20;;;;;;;40.58;28.00;;;12.20;99.90;;;;;;4918313;29;20604;-75
2021/09/23 04:48:48;;;;;;;38.20;28.25;;;12.20;99.90;;;;;;4917641;29;20229;-74
2021/09/23 04:51:14;;;;;;;41.63;29.92;;;12.20;99.90;;;;;;4918390;29;20710;-75
2021/09/23 04:53:42;;;;;;;38.95;27.85;;;12.20;99.90;;;;;;4918792;29;20246;-73
2021/09/23 04:56:09;;;;;;;43.25;28.85;;;12.20;99.90;;;;;;4914290;29;20211;-73
2021/09/23 04:58:36;;;;;;;43.80;27.55;;;12.20;99.90;;;;;;4900709;29;20207;-73
2021/09/23 05:01:03;;;;;;;40.97;27.13;;;12.20;99.90;;;;;;4901441;29;21038;-76
2021/09/23 05:03:30;;;;;;;43.75;28.75;;;12.10;99.90;;;;;;4899636;29;20247;-75
2021/09/23 05:05:57;;;;;;;40.63;28.80;;;12.10;99.90;;;;;;4899991;29;20278;-76
2021/09/23 05:08:24;;;;;;;41.83;29.00;;;12.10;99.90;;;;;;4899648;29;20240;-72
2021/09/23 05:10:52;;;;;;;40.70;29.30;;;12.20;99.90;;;;;;4916617;29;20290;-72
2021/09/23 05:13:19;;;;;;;40.33;27.88;;;12.10;99.90;;;;;;4918808;29;20231;-72
2021/09/23 05:15:47;;;;;;;44.10;28.23;;;12.10;99.90;;;;;;4917119;29;20663;-73
2021/09/23 05:18:14;;;;;;;40.13;27.45;;;12.10;99.90;;;;;;4917428;29;20242;-73
2021/09/23 05:20:41;;;;;;;43.13;27.05;;;12.10;99.90;;;;;;4918400;29;20226;-73
2021/09/23 05:23:08;;;;;;;47.10;28.35;;;12.10;99.90;;;;;;4917189;29;20273;-73
2021/09/23 05:25:35;;;;;;;42.97;29.23;;;12.10;99.90;;;;;;4917754;29;20210;-73
2021/09/23 05:28:04;;;;;;;38.00;27.27;;;12.10;99.90;;;;;;4917121;29;20218;-73
2021/09/23 05:30:31;;;;;;;37.47;27.83;;;12.10;99.90;;;;;;4898458;29;20298;-72
2021/09/23 05:32:58;;;;;;;36.80;27.60;;;12.10;99.90;;;;;;4897316;29;20533;-72
2021/09/23 05:35:25;;;;;;;39.80;27.77;;;12.10;99.90;;;;;;4899032;29;20218;-72
2021/09/23 05:37:51;;;;;;;39.05;26.13;;;12.10;99.90;;;;;;4898542;29;20222;-72
2021/09/23 05:40:19;;;;;;;38.20;27.50;;;12.10;99.90;;;;;;4898135;29;20314;-72
2021/09/23 05:42:45;;;;;;;41.45;28.35;;;12.10;99.90;;;;;;4897039;29;20644;-72
2021/09/23 05:45:14;;;;;;;35.35;25.77;;;12.10;99.90;;;;;;4899389;29;20562;-72
2021/09/23 05:47:42;;;;;;;41.58;26.08;;;12.10;99.90;;;;;;4899274;29;20215;-73
2021/09/23 05:50:10;;;;;;;42.50;27.05;;;12.20;99.90;;;;;;4899961;29;20568;-72
2021/09/23 05:52:37;;;;;;;35.58;25.42;;;12.20;99.90;;;;;;4899480;29;20223;-72
2021/09/23 05:55:05;;;;;;;38.80;27.05;;;12.20;99.90;;;;;;4900521;29;20211;-72
2021/09/23 05:57:35;;;;;;;36.90;26.42;;;12.30;99.90;;;;;;4900466;29;20262;-73
2021/09/23 06:00:04;;;;;;;35.08;25.23;;;12.30;99.90;;;;;;4899695;29;20242;-72
2021/09/23 06:02:32;;;;;;;35.65;26.05;;;12.40;99.90;;;;;;4898357;29;20243;-74
2021/09/23 06:04:59;;;;;;;37.20;26.55;;;12.40;99.90;;;;;;4898509;29;20271;-73
2021/09/23 06:07:25;;;;;;;39.65;26.08;;;12.50;99.90;;;;;;4905183;29;20226;-74
2021/09/23 06:09:52;;;;;;;32.80;25.85;;;12.60;99.90;;;;;;4917463;29;20234;-73
2021/09/23 06:12:19;;;;;;;38.65;25.15;;;12.60;99.90;;;;;;4917771;29;20294;-74
2021/09/23 06:14:46;;;;;;;33.45;24.33;;;12.70;99.90;;;;;;4916764;29;20214;-72
2021/09/23 06:17:13;;;;;;;32.77;25.07;;;12.80;99.90;;;;;;4916092;29;20207;-73
2021/09/23 06:19:41;;;;;;;33.60;24.50;;;12.80;99.90;;;;;;4915864;29;20462;-73
2021/09/23 06:22:08;;;;;;;34.93;23.00;;;12.90;99.90;;;;;;4916040;29;20486;-71
2021/09/23 06:24:35;;;;;;;32.03;22.00;;;13.00;99.90;;;;;;4916464;29;20466;-71
2021/09/23 06:27:02;;;;;;;35.73;22.63;;;13.00;99.90;;;;;;4916463;29;20478;-71
2021/09/23 06:29:29;;;;;;;29.63;21.67;;;13.10;99.90;;;;;;4916333;29;20486;-72
2021/09/23 06:31:55;;;;;;;29.13;21.97;;;13.20;99.90;;;;;;4916333;29;20842;-72
2021/09/23 06:34:22;;;;;;;27.97;21.93;;;13.20;99.90;;;;;;4915598;29;20475;-72
2021/09/23 06:36:50;;;;;;;28.80;20.83;;;13.30;99.90;;;;;;4916330;29;20549;-74
2021/09/23 06:39:17;;;;;;;33.53;21.37;;;13.30;99.90;;;;;;4916159;29;20470;-75
2021/09/23 06:41:44;;;;;;;33.53;22.70;;;13.40;99.90;;;;;;4914995;29;21057;-75
2021/09/23 06:44:11;;;;;;;37.00;22.60;;;13.40;99.90;;;;;;4915865;29;20838;-75
2021/09/23 06:46:37;;;;;;;31.60;22.13;;;13.50;99.90;;;;;;4915908;29;20466;-74
2021/09/23 06:49:04;;;;;;;29.80;21.40;;;13.50;99.90;;;;;;4915598;29;20526;-72
2021/09/23 06:51:31;;;;;;;31.30;21.90;;;13.60;99.90;;;;;;4916223;29;20905;-72
2021/09/23 06:53:59;;;;;;;30.53;20.63;;;13.60;99.90;;;;;;4916307;29;20861;-72
2021/09/23 06:56:26;;;;;;;30.20;21.53;;;13.60;99.90;;;;;;4909427;29;20876;-75
2021/09/23 06:58:52;;;;;;;28.43;20.53;;;13.70;99.90;;;;;;4897253;29;20479;-71
2021/09/23 07:01:20;;;;;;;28.27;20.50;;;13.70;99.90;;;;;;4896987;29;20551;-72
2021/09/23 07:03:46;;;;;;;33.70;21.93;;;13.90;99.90;;;;;;4896066;29;20893;-72
2021/09/23 07:06:13;;;;;;;26.30;19.50;;;13.90;99.90;;;;;;4897247;29;20530;-72
2021/09/23 07:08:40;;;;;;;22.23;17.80;;;14.00;99.90;;;;;;4896892;29;20503;-72
2021/09/23 07:11:08;;;;;;;26.30;19.40;;;14.10;99.90;;;;;;4896857;29;20850;-71
2021/09/23 07:13:35;;;;;;;23.33;18.83;;;14.10;99.90;;;;;;4896652;29;20471;-72
2021/09/23 07:16:01;;;;;;;26.67;21.07;;;14.20;99.90;;;;;;4896884;29;20625;-72
2021/09/23 07:18:28;;;;;;;25.07;18.83;;;14.20;99.90;;;;;;4896154;29;20483;-73
2021/09/23 07:20:56;;;;;;;27.80;20.00;;;14.20;99.90;;;;;;4896958;29;20487;-72
2021/09/23 07:23:24;;;;;;;27.90;20.80;;;14.30;99.90;;;;;;4896650;29;20478;-72
2021/09/23 07:25:51;;;;;;;30.13;18.83;;;14.30;99.90;;;;;;4897006;29;20574;-71
2021/09/23 07:28:19;;;;;;;27.17;19.87;;;14.40;99.90;;;;;;4896366;29;20467;-72
2021/09/23 07:30:45;;;;;;;25.93;19.90;;;14.50;99.90;;;;;;4915184;29;20502;-72
2021/09/23 07:33:12;;;;;;;27.30;20.37;;;14.60;99.90;;;;;;4918368;29;20474;-72
2021/09/23 07:35:39;;;;;;;22.13;19.03;;;14.60;99.90;;;;;;4919404;29;20832;-72
2021/09/23 07:38:06;;;;;;;23.00;18.97;;;14.60;99.90;;;;;;4918752;29;20470;-72
2021/09/23 07:40:32;;;;;;;28.50;19.60;;;14.60;99.90;;;;;;4919052;29;20490;-72
2021/09/23 07:42:59;;;;;;;24.17;18.97;;;14.70;99.90;;;;;;4918944;29;20549;-72
2021/09/23 07:45:28;;;;;;;28.53;19.23;;;14.70;99.90;;;;;;4918859;29;20545;-74
2021/09/23 07:47:55;;;;;;;23.47;19.57;;;14.70;99.90;;;;;;4917902;29;20478;-71
2021/09/23 07:50:22;;;;;;;25.17;18.47;;;14.70;99.90;;;;;;4918784;29;20482;-71
2021/09/23 07:52:48;;;;;;;24.90;17.93;;;14.80;99.90;;;;;;4918566;29;20473;-71
2021/09/23 07:55:15;;;;;;;25.63;20.67;;;14.80;99.90;;;;;;4919233;29;20478;-74
2021/09/23 07:57:42;;;;;;;21.00;17.73;;;14.90;99.90;;;;;;4918728;29;20510;-75
2021/09/23 08:00:10;;;;;;;23.33;17.63;;;15.00;99.90;;;;;;4918441;29;20581;-73
2021/09/23 08:02:38;;;;;;;22.03;18.83;;;15.10;99.90;;;;;;4917307;29;20478;-74
2021/09/23 08:05:05;;;;;;;21.83;17.27;;;15.10;99.90;;;;;;4917850;29;20471;-73
2021/09/23 08:07:32;;;;;;;24.03;17.00;;;15.20;99.90;;;;;;4918541;29;20518;-74
2021/09/23 08:09:58;;;;;;;23.63;18.00;;;15.20;99.90;;;;;;4919049;29;20491;-74
2021/09/23 08:12:27;;;;;;;20.43;17.37;;;15.20;99.90;;;;;;4918160;29;20542;-74
2021/09/23 08:14:54;;;;;;;21.00;16.80;;;15.20;99.90;;;;;;4918434;29;20475;-74
2021/09/23 08:17:20;;;;;;;24.37;17.77;;;15.30;99.90;;;;;;4917514;29;20474;-73
2021/09/23 08:19:48;;;;;;;23.30;17.60;;;15.40;99.90;;;;;;4899046;29;20495;-74
2021/09/23 08:22:15;;;;;;;23.83;18.33;;;15.50;99.90;;;;;;4898823;29;20500;-73
2021/09/23 08:24:43;;;;;;;19.90;16.63;;;15.60;99.90;;;;;;4899024;29;20970;-72
2021/09/23 08:27:09;;;;;;;21.73;18.30;;;15.70;99.90;;;;;;4899232;29;20605;-73
2021/09/23 08:29:36;;;;;;;23.77;17.70;;;15.90;99.90;;;;;;4899035;29;20476;-72
2021/09/23 08:32:04;;;;;;;22.50;17.07;;;15.90;99.90;;;;;;4898511;29;21022;-72
2021/09/23 08:34:30;;;;;;;20.97;16.47;;;16.00;99.90;;;;;;4906565;29;20576;-70
2021/09/23 08:36:58;;;;;;;21.80;16.63;;;16.10;99.90;;;;;;4918021;29;20466;-72
2021/09/23 08:39:25;;;;;;;18.00;16.00;;;16.30;99.90;;;;;;4917790;29;21007;-72
2021/09/23 08:41:52;;;;;;;20.93;15.77;;;16.40;99.90;;;;;;4917374;29;20534;-72
2021/09/23 08:44:19;;;;;;;17.10;15.30;;;16.50;99.90;;;;;;4917896;29;20466;-74
2021/09/23 08:46:45;;;;;;;22.17;16.40;;;16.50;99.90;;;;;;4917873;29;20466;-71
2021/09/23 08:49:12;;;;;;;16.13;14.57;;;16.70;99.90;;;;;;4917808;29;20466;-72
2021/09/23 08:51:39;;;;;;;17.27;15.13;;;16.80;99.90;;;;;;4917369;29;20490;-72
2021/09/23 08:54:07;;;;;;;20.33;14.03;;;16.90;99.90;;;;;;4916887;29;20805;-74
2021/09/23 08:56:34;;;;;;;16.90;13.20;;;16.90;99.90;;;;;;4909841;29;20479;-74
2021/09/23 08:59:01;;;;;;;15.70;13.87;;;17.00;99.90;;;;;;4898371;29;20483;-74
2021/09/23 09:01:33;;;;;;;15.53;13.80;;;17.10;99.90;;;;;;4898185;29;20551;-72
2021/09/23 09:04:01;;;;;;;19.63;14.63;;;17.10;99.90;;;;;;4897869;29;20452;-74
2021/09/23 09:06:28;;;;;;;18.93;13.77;;;17.10;99.90;;;;;;4898154;29;20578;-74
2021/09/23 09:08:55;;;;;;;15.93;13.23;;;17.10;99.90;;;;;;4898535;29;20471;-74
2021/09/23 09:11:24;;;;;;;15.17;13.17;;;17.10;99.90;;;;;;4898162;29;20495;-73
2021/09/23 09:13:53;;;;;;;17.23;14.80;;;17.20;99.90;;;;;;4898055;29;20467;-74
2021/09/23 09:16:21;;;;;;;17.70;15.17;;;17.10;99.90;;;;;;4898052;29;20471;-74
2021/09/23 09:18:50;;;;;;;15.60;14.00;;;17.10;99.90;;;;;;4897255;29;20948;-74
2021/09/23 09:21:19;;;;;;;14.60;12.90;;;17.00;99.90;;;;;;4897901;29;20842;-74
2021/09/23 09:23:50;;;;;;;15.53;13.50;;;17.00;99.90;;;;;;4897776;29;20471;-75
2021/09/23 09:26:29;;;;;;;17.53;13.80;;;17.00;99.90;;;;;;4898304;29;21055;-73
2021/09/23 09:28:59;;;;;;;17.70;13.27;;;17.00;99.90;;;;;;4899925;29;20830;-73
2021/09/23 09:31:27;;;;;;;16.47;14.77;;;17.10;99.90;;;;;;4916870;29;20827;-73
2021/09/23 09:33:56;;;;;;;16.27;14.57;;;17.10;99.90;;;;;;4915777;29;20478;-72
2021/09/23 09:36:27;;;;;;;15.63;13.27;;;17.20;99.90;;;;;;4917003;29;20473;-72
2021/09/23 09:38:56;;;;;;;18.90;14.53;;;17.20;99.90;;;;;;4916978;29;20460;-72
2021/09/23 09:41:26;;;;;;;16.97;14.50;;;17.20;99.90;;;;;;4916574;29;20518;-72
2021/09/23 09:43:55;;;;;;;17.50;15.17;;;17.20;99.90;;;;;;4916364;29;20557;-72
2021/09/23 09:46:27;;;;;;;20.47;15.17;;;17.10;99.90;;;;;;4917594;29;20535;-72
2021/09/23 09:48:54;;;;;;;16.47;14.73;;;17.00;99.90;;;;;;4915903;29;20474;-72
2021/09/23 09:51:35;;;;;;;16.77;14.90;;;17.00;99.90;;;;;;4916911;29;20571;-73
2021/09/23 09:54:03;;;;;;;20.63;16.40;;;16.90;99.90;;;;;;4919446;29;20451;-73
2021/09/23 09:56:31;;;;;;;17.67;15.87;;;16.90;99.90;;;;;;4918211;29;20467;-73
2021/09/23 09:59:17;;;;;;;21.40;16.20;;;16.90;99.90;;;;;;4918267;29;20537;-73
2021/09/23 10:01:48;;;;;;;17.70;15.63;;;16.90;99.90;;;;;;4916057;29;20501;-73
2021/09/23 10:04:16;;;;;;;19.90;14.20;;;16.90;99.90;;;;;;4916181;29;20920;-72
2021/09/23 10:06:43;;;;;;;18.80;16.80;;;16.90;99.90;;;;;;4916670;29;20513;-71
2021/09/23 10:09:12;;;;;;;21.83;17.47;;;16.90;99.90;;;;;;4917452;29;20466;-72
2021/09/23 10:11:43;;;;;;;22.50;17.00;;;17.00;99.90;;;;;;4916387;29;20940;-71
2021/09/23 10:14:11;;;;;;;17.60;15.67;;;17.00;99.90;;;;;;4916243;29;20957;-71
2021/09/23 10:16:38;;;;;;;25.67;16.07;;;17.10;99.90;;;;;;4916160;29;20474;-71
2021/09/23 10:19:06;;;;;;;17.57;15.23;;;17.10;99.90;;;;;;4903380;29;20471;-71
2021/09/23 10:21:34;;;;;;;17.80;15.37;;;17.20;99.90;;;;;;4897484;29;20491;-71
2021/09/23 10:24:03;;;;;;;17.83;15.93;;;17.10;99.90;;;;;;4897142;29;20483;-71
2021/09/23 10:26:33;;;;;;;19.67;15.90;;;17.10;99.90;;;;;;4897116;29;20952;-71
2021/09/23 10:29:03;;;;;;;19.27;16.53;;;17.10;99.90;;;;;;4897460;29;20541;-71
2021/09/23 10:31:35;;;;;;;22.50;17.60;;;17.10;99.90;;;;;;4897090;29;20586;-68
2021/09/23 10:34:04;;;;;;;18.20;16.40;;;17.10;99.90;;;;;;4896640;29;20535;-72
2021/09/23 10:36:32;;;;;;;19.97;15.87;;;17.10;99.90;;;;;;4897574;29;20464;-72
2021/09/23 10:39:01;;;;;;;20.00;16.37;;;17.10;99.90;;;;;;4897271;29;20472;-73
2021/09/23 10:41:28;;;;;;;20.10;16.80;;;17.10;99.90;;;;;;4897165;29;20520;-73
2021/09/23 10:43:57;;;;;;;17.43;15.50;;;17.10;99.90;;;;;;4897444;29;20471;-73
2021/09/23 10:46:27;;;;;;;16.97;15.17;;;17.20;99.90;;;;;;4897239;29;20479;-73
2021/09/23 10:48:55;;;;;;;18.37;16.30;;;17.30;99.90;;;;;;4896946;29;20482;-73
2021/09/23 10:51:22;;;;;;;15.93;14.30;;;17.40;99.90;;;;;;4897259;29;20559;-73
2021/09/23 10:53:52;;;;;;;15.63;14.17;;;17.60;99.90;;;;;;4896901;29;20547;-73
2021/09/23 10:56:20;;;;;;;15.80;13.87;;;17.70;99.90;;;;;;4897141;29;20490;-73
2021/09/23 10:58:48;;;;;;;15.93;14.13;;;17.80;99.90;;;;;;4897248;29;20472;-73
2021/09/23 11:01:24;;;;;;;15.80;14.37;;;17.80;99.90;;;;;;4897074;29;21055;-73
2021/09/23 11:03:55;;;;;;;16.97;15.27;;;17.90;99.90;;;;;;4896404;29;20471;-73
2021/09/23 11:06:32;;;;;;;14.80;13.30;;;18.00;99.90;;;;;;4900722;29;20491;-73
2021/09/23 11:08:59;;;;;;;13.80;12.30;;;18.00;99.90;;;;;;4900343;29;20913;-72
2021/09/23 11:11:26;;;;;;;14.57;12.37;;;18.00;99.90;;;;;;4900281;29;20911;-73
2021/09/23 11:13:53;;;;;;;13.53;12.13;;;18.00;99.90;;;;;;4900958;29;20547;-73
2021/09/23 11:16:19;;;;;;;15.43;13.40;;;18.00;99.90;;;;;;4901986;29;20475;-74
2021/09/23 11:18:48;;;;;;;12.43;11.10;;;18.00;99.90;;;;;;4900979;29;20471;-73
2021/09/23 11:21:16;;;;;;;14.33;11.70;;;18.10;99.90;;;;;;4900963;29;20506;-73
2021/09/23 11:23:44;;;;;;;12.30;11.07;;;18.20;99.90;;;;;;4900527;29;20471;-73
2021/09/23 11:26:11;;;;;;;11.63;10.57;;;18.20;99.90;;;;;;4900948;29;20537;-73
2021/09/23 11:28:39;;;;;;;12.20;10.60;;;18.20;99.90;;;;;;4900462;29;20463;-72
2021/09/23 11:31:06;;;;;;;12.73;11.03;;;18.20;99.90;;;;;;4899956;29;20970;-72
2021/09/23 11:33:35;;;;;;;10.10;9.20;;;18.10;99.90;;;;;;4899648;29;20467;-73
2021/09/23 11:36:01;;;;;;;12.83;11.57;;;18.00;99.90;;;;;;4900764;29;20819;-72
2021/09/23 11:38:29;;;;;;;15.27;11.20;;;18.00;99.90;;;;;;4900033;29;20513;-75
2021/09/23 11:40:58;;;;;;;13.33;10.60;;;17.90;99.90;;;;;;4900501;29;21016;-73
2021/09/23 11:43:29;;;;;;;11.03;10.07;;;17.90;99.90;;;;;;4899613;29;20527;-74
2021/09/23 11:45:58;;;;;;;10.90;9.90;;;17.90;99.90;;;;;;4900325;29;20471;-73
2021/09/23 11:48:34;;;;;;;10.73;9.63;;;17.80;99.90;;;;;;4899289;29;20572;-73
2021/09/23 11:51:03;;;;;;;11.60;9.63;;;17.80;99.90;;;;;;4899934;29;20490;-73
2021/09/23 11:53:32;;;;;;;10.33;9.33;;;17.80;99.90;;;;;;4899406;29;20510;-74
2021/09/23 11:56:02;;;;;;;10.37;9.53;;;17.80;99.90;;;;;;4900387;29;20807;-72
2021/09/23 11:58:31;;;;;;;9.30;8.60;;;17.70;99.90;;;;;;4899879;29;20471;-74
2021/09/23 12:00:58;;;;;;;13.60;10.10;;;17.70;99.90;;;;;;4899988;29;20563;-74
2021/09/23 12:03:26;;;;;;;11.30;10.20;;;17.60;99.90;;;;;;4899026;29;20950;-74
2021/09/23 12:05:56;;;;;;;11.73;10.73;;;17.50;99.90;;;;;;4899674;29;20479;-74
2021/09/23 12:08:24;;;;;;;14.20;10.60;;;17.50;99.90;;;;;;4899849;29;20455;-74
2021/09/23 12:10:55;;;;;;;13.07;11.67;;;17.50;99.90;;;;;;4899822;29;20637;-73
2021/09/23 12:13:29;;;;;;;12.13;10.93;;;17.50;99.90;;;;;;4899662;29;20948;-73
2021/09/23 12:15:58;;;;;;;12.10;10.90;;;17.40;99.90;;;;;;4899156;29;20565;-73
2021/09/23 12:18:26;;;;;;;13.17;11.40;;;17.40;99.90;;;;;;4898155;29;20969;-74
2021/09/23 12:20:56;;;;;;;12.57;11.27;;;17.40;99.90;;;;;;4899851;29;20895;-73
2021/09/23 12:23:34;;;;;;;13.27;11.97;;;17.40;99.90;;;;;;4898946;29;20543;-73
2021/09/23 12:26:21;;;;;;;13.73;11.53;;;17.40;99.90;;;;;;4899781;29;20867;-73
2021/09/23 12:28:58;;;;;;;12.17;11.00;;;17.40;99.90;;;;;;4898842;29;20467;-73
2021/09/23 12:31:32;;;;;;;12.20;11.13;;;17.40;99.90;;;;;;4899529;29;20570;-75
2021/09/23 12:34:02;;;;;;;11.87;10.83;;;17.40;99.90;;;;;;4899075;29;20832;-75
2021/09/23 12:36:32;;;;;;;14.27;12.07;;;17.40;99.90;;;;;;4899723;29;20905;-75
2021/09/23 12:39:11;;;;;;;13.57;12.10;;;17.40;99.90;;;;;;4899439;29;20535;-73
2021/09/23 12:41:39;;;;;;;12.20;11.03;;;17.40;99.90;;;;;;4899670;29;20530;-73
2021/09/23 12:44:08;;;;;;;11.63;10.50;;;17.40;99.90;;;;;;4898793;29;20960;-72
2021/09/23 12:46:36;;;;;;;11.80;10.70;;;17.40;99.90;;;;;;4898951;29;20471;-72
2021/09/23 12:49:14;;;;;;;11.70;10.73;;;17.50;99.90;;;;;;4899031;29;20956;-73
2021/09/23 12:51:42;;;;;;;11.87;10.80;;;17.50;99.90;;;;;;4899069;29;20598;-73
2021/09/23 12:54:19;;;;;;;10.50;9.50;;;17.60;99.90;;;;;;4898989;29;20530;-73
2021/09/23 12:56:48;;;;;;;11.30;10.17;;;17.60;99.90;;;;;;4898856;29;20479;-73
2021/09/23 12:59:19;;;;;;;9.93;9.13;;;17.70;99.90;;;;;;4898244;29;20535;-73
2021/09/23 13:01:46;;;;;;;11.03;9.50;;;17.70;99.90;;;;;;4897884;29;20583;-73
2021/09/23 13:04:21;;;;;;;10.90;10.00;;;17.60;99.90;;;;;;4898161;29;20520;-73
2021/09/23 13:06:48;;;;;;;11.00;10.00;;;17.70;99.90;;;;;;4901370;29;20506;-73
2021/09/23 13:09:14;;;;;;;11.67;10.50;;;17.70;99.90;;;;;;4917523;29;20847;-73
2021/09/23 13:11:41;;;;;;;11.20;10.20;;;17.70;99.90;;;;;;4917142;29;20597;-73
2021/09/23 13:14:26;;;;;;;11.00;10.10;;;17.60;99.90;;;;;;4917426;29;20466;-73
2021/09/23 13:16:56;;;;;;;16.40;11.07;;;17.60;99.90;;;;;;4916907;29;20513;-73
2021/09/23 13:19:23;;;;;;;10.87;9.97;;;17.60;99.90;;;;;;4916745;29;20517;-71
2021/09/23 13:21:49;;;;;;;11.00;10.00;;;17.60;99.90;;;;;;4917286;29;20483;-72
2021/09/23 13:24:16;;;;;;;11.50;10.43;;;17.60;99.90;;;;;;4916950;29;20466;-72
2021/09/23 13:26:45;;;;;;;12.43;10.27;;;17.60;99.90;;;;;;4917111;29;20477;-72
2021/09/23 13:29:12;;;;;;;10.67;9.70;;;17.60;99.90;;;;;;4916030;29;20606;-72
2021/09/23 13:31:40;;;;;;;12.27;10.90;;;17.50;99.90;;;;;;4916658;29;20494;-73
2021/09/23 13:34:07;;;;;;;10.10;9.40;;;17.50;99.90;;;;;;4916567;29;20474;-72
2021/09/23 13:36:34;;;;;;;14.07;9.97;;;17.40;99.90;;;;;;4917053;29;20466;-72
2021/09/23 13:39:04;;;;;;;10.30;9.40;;;17.30;99.90;;;;;;4916837;29;20588;-72
2021/09/23 13:41:30;;;;;;;10.90;9.27;;;17.30;99.90;;;;;;4913872;29;21015;-72
2021/09/23 13:43:57;;;;;;;10.60;9.70;;;17.30;99.90;;;;;;4916978;29;20474;-71
2021/09/23 13:46:24;;;;;;;12.37;11.33;;;17.30;99.90;;;;;;4907440;29;20471;-72
2021/09/23 13:48:52;;;;;;;10.20;9.30;;;17.20;99.90;;;;;;4898928;29;20471;-71
2021/09/23 13:51:18;;;;;;;11.50;10.20;;;17.20;99.90;;;;;;4898045;29;20826;-71
2021/09/23 13:53:45;;;;;;;10.73;9.80;;;17.30;99.90;;;;;;4897389;29;20953;-71
2021/09/23 13:56:12;;;;;;;10.50;9.47;;;17.20;99.90;;;;;;4898338;29;20471;-71
2021/09/23 13:58:38;;;;;;;10.73;8.40;;;17.30;99.90;;;;;;4897721;29;20885;-72
2021/09/23 14:01:05;;;;;;;9.70;8.80;;;17.30;99.90;;;;;;4897763;29;20530;-71
2021/09/23 14:03:32;;;;;;;9.10;8.20;;;17.30;99.90;;;;;;4896595;29;20885;-72
2021/09/23 14:06:00;;;;;;;9.80;8.33;;;17.30;99.90;;;;;;4897579;29;20507;-71
2021/09/23 14:08:27;;;;;;;10.00;8.50;;;17.40;99.90;;;;;;4897384;29;20471;-71
2021/09/23 14:10:54;;;;;;;10.70;9.60;;;17.40;99.90;;;;;;4897429;29;20495;-71
2021/09/23 14:13:21;;;;;;;9.87;8.97;;;17.30;99.90;;;;;;4897500;29;20491;-71
2021/09/23 14:15:48;;;;;;;10.40;9.30;;;17.30;99.90;;;;;;4897700;29;20463;-71
2021/09/23 14:18:14;;;;;;;12.10;9.10;;;17.30;99.90;;;;;;4902520;29;20466;-71
2021/09/23 14:20:41;;;;;;;13.27;9.43;;;17.30;99.90;;;;;;4916313;29;20553;-71
2021/09/23 14:23:10;;;;;;;10.23;9.33;;;17.20;99.90;;;;;;4916042;29;20462;-72
2021/09/23 14:25:37;;;;;;;9.80;8.70;;;17.20;99.90;;;;;;4916623;29;20782;-72
2021/09/23 14:28:05;;;;;;;10.77;9.40;;;17.20;99.90;;;;;;4915959;29;20470;-71
2021/09/23 14:30:32;;;;;;;14.60;8.90;;;17.10;99.90;;;;;;4916271;29;20490;-72
2021/09/23 14:32:59;;;;;;;8.90;8.10;;;17.10;99.90;;;;;;4915352;29;20926;-71
2021/09/23 14:35:25;;;;;;;9.37;8.57;;;17.20;99.90;;;;;;4916417;29;20470;-71
2021/09/23 14:37:52;;;;;;;8.20;7.60;;;17.30;99.90;;;;;;4915922;29;20466;-72
2021/09/23 14:40:24;;;;;;;11.90;9.10;;;17.40;99.90;;;;;;4919215;29;20478;-72
2021/09/23 14:42:51;;;;;;;8.50;7.90;;;17.40;99.90;;;;;;4920045;29;20562;-72
2021/09/23 14:45:18;;;;;;;9.30;8.37;;;17.40;99.90;;;;;;4919971;29;20474;-71
2021/09/23 14:47:45;;;;;;;8.07;7.50;;;17.50;99.90;;;;;;4918913;29;20482;-71
2021/09/23 14:50:13;;;;;;;7.30;6.80;;;17.50;99.90;;;;;;4919549;29;20557;-72
2021/09/23 14:52:40;;;;;;;8.20;7.60;;;17.50;99.90;;;;;;4920049;29;20494;-71
2021/09/23 14:55:08;;;;;;;8.77;7.90;;;17.60;99.90;;;;;;4919873;29;20915;-72
2021/09/23 14:57:36;;;;;;;9.00;6.47;;;17.60;99.90;;;;;;4919874;29;20517;-72
2021/09/23 15:00:05;;;;;;;8.87;6.30;;;17.50;99.90;;;;;;4919988;28;20881;-74
2021/09/23 15:02:32;;;;;;;5.67;5.20;;;17.60;99.90;;;;;;4918367;29;20597;-74
2021/09/23 15:04:58;;;;;;;4.57;4.17;;;17.50;99.90;;;;;;4919528;29;20466;-74
2021/09/23 15:07:25;;;;;;;5.37;4.97;;;17.50;99.90;;;;;;4914931;29;20475;-73
2021/09/23 15:09:52;;;;;;;4.70;4.30;;;17.40;99.90;;;;;;4900939;29;20467;-74
2021/09/23 15:12:19;;;;;;;4.20;4.00;;;17.40;99.90;;;;;;4900055;29;20981;-74
2021/09/23 15:14:47;;;;;;;5.00;4.80;;;17.40;99.90;;;;;;4901069;29;20475;-74
2021/09/23 15:17:14;;;;;;;4.70;4.37;;;17.40;99.90;;;;;;4900247;29;20467;-73
2021/09/23 15:19:41;;;;;;;4.03;3.83;;;17.40;99.90;;;;;;4899846;29;20546;-72
2021/09/23 15:22:07;;;;;;;4.10;3.80;;;17.40;99.90;;;;;;4899674;29;20491;-72
2021/09/23 15:24:34;;;;;;;4.80;4.10;;;17.40;99.90;;;;;;4900182;29;20892;-72
2021/09/23 15:27:01;;;;;;;4.03;3.83;;;17.40;99.90;;;;;;4900533;29;20475;-73
2021/09/23 15:29:27;;;;;;;4.53;4.20;;;17.30;99.90;;;;;;4900164;29;20530;-72
2021/09/23 15:31:55;;;;;;;4.67;4.37;;;17.30;99.90;;;;;;4900294;29;20601;-72
2021/09/23 15:34:22;;;;;;;5.00;4.60;;;17.30;99.90;;;;;;4899544;29;20872;-72
2021/09/23 15:36:49;;;;;;;6.13;5.63;;;17.30;99.90;;;;;;4900139;29;20475;-73
2021/09/23 15:39:16;;;;;;;4.83;4.43;;;17.30;99.90;;;;;;4900307;29;20526;-73
2021/09/23 15:41:42;;;;;;;5.03;4.73;;;17.30;99.90;;;;;;4900081;29;20487;-73
2021/09/23 15:44:09;;;;;;;4.77;4.50;;;17.30;99.90;;;;;;4899552;29;20471;-74
2021/09/23 15:46:36;;;;;;;4.60;4.23;;;17.30;99.90;;;;;;4899368;29;20486;-73
2021/09/23 15:49:04;;;;;;;10.90;5.13;;;17.30;99.90;;;;;;4899551;29;20474;-74
2021/09/23 15:51:30;;;;;;;4.80;4.50;;;17.20;99.90;;;;;;4898929;29;20539;-74
2021/09/23 15:53:57;;;;;;;3.93;3.63;;;17.10;99.90;;;;;;4899889;29;20499;-74
2021/09/23 15:56:24;;;;;;;6.97;4.40;;;17.00;99.90;;;;;;4898982;29;20491;-74
2021/09/23 15:58:51;;;;;;;5.20;5.00;;;16.80;99.90;;;;;;4899593;29;20538;-74
2021/09/23 16:01:17;;;;;;;5.00;4.70;;;16.70;99.90;;;;;;4899795;29;20574;-73
2021/09/23 16:03:44;;;;;;;5.33;4.93;;;16.60;99.90;;;;;;4898500;29;20917;-74
2021/09/23 16:06:12;;;;;;;5.17;4.80;;;16.50;99.90;;;;;;4899575;29;20539;-74
2021/09/23 16:08:39;;;;;;;5.30;4.90;;;16.50;99.90;;;;;;4899847;29;20479;-73
2021/09/23 16:11:06;;;;;;;6.67;5.07;;;16.40;99.90;;;;;;4899718;29;20487;-73
2021/09/23 16:13:33;;;;;;;4.60;4.30;;;16.50;99.90;;;;;;4899213;29;20487;-73
2021/09/23 16:16:01;;;;;;;5.80;5.20;;;16.40;99.90;;;;;;4899681;29;20916;-73
2021/09/23 16:18:28;;;;;;;5.07;4.77;;;16.50;99.90;;;;;;4898762;29;20471;-74
2021/09/23 16:20:55;;;;;;;5.40;5.20;;;16.40;99.90;;;;;;4898860;29;20511;-74
2021/09/23 16:23:24;;;;;;;5.30;4.97;;;16.30;99.90;;;;;;4898948;29;20474;-74
2021/09/23 16:25:52;;;;;;;5.80;5.37;;;16.20;99.90;;;;;;4899745;29;20519;-74
2021/09/23 16:28:19;;;;;;;6.37;5.77;;;16.20;99.90;;;;;;4898939;29;20467;-73
2021/09/23 16:30:46;;;;;;;6.47;5.90;;;16.10;99.90;;;;;;4899720;29;20555;-74
2021/09/23 16:33:13;;;;;;;6.40;5.90;;;16.10;99.90;;;;;;4897869;29;20555;-71
2021/09/23 16:35:40;;;;;;;5.57;5.27;;;16.10;99.90;;;;;;4899528;29;20503;-74